Terminal Aerodrome Forecast
Issued by NWS

Home | Current Version | Previous Version | Text Only | Print | Product List | Glossary On
Versions: 1 2 3 4 5 6 7 8 9 10 11 12 13
000
FTUS45 KLKN 241145
TAFTPH
TAF
KTPH 241145Z 2412/2512 35011KT P6SM SCT200
     FM242000 32020G30KT P6SM BKN060 BKN120
     FM250100 33027G37KT P6SM BKN100
     FM251000 34012KT P6SM SKC=

USA.gov is the U.S. government's official web portal to all federal, state and local government web resources and services.